Time;durP1;ratioP1;P1;durP2;ratioP2;P2;SDS_P1;SDS_P2;PMS_P1;PMS_P2;Temp;Humidity;BMP_temperature;BMP_pressure;BME280_temperature;BME280_humidity;BME280_pressure;Samples;Min_cycle;Max_cycle;Signal;HPM_P1;HPM_P2
2022/06/17 00:00:45;;;;;;;6.37;5.80;;;20.40;99.90;;;;;;5090137;28;20212;-52
2022/06/17 00:03:12;;;;;;;5.27;4.97;;;20.30;99.90;;;;;;5095923;28;20224;-51
2022/06/17 00:05:39;;;;;;;5.87;5.43;;;20.20;99.90;;;;;;5087581;28;20197;-52
2022/06/17 00:08:07;;;;;;;5.70;5.17;;;20.10;99.90;;;;;;5090816;28;20200;-52
2022/06/17 00:10:35;;;;;;;5.63;5.43;;;20.10;99.90;;;;;;5090622;28;20196;-51
2022/06/17 00:13:02;;;;;;;5.90;5.67;;;20.00;99.90;;;;;;5081929;28;20299;-51
2022/06/17 00:15:30;;;;;;;5.93;5.43;;;19.90;99.90;;;;;;5091940;28;20197;-52
2022/06/17 00:17:58;;;;;;;6.13;5.83;;;19.80;99.90;;;;;;5091310;28;20197;-52
2022/06/17 00:20:26;;;;;;;6.07;5.73;;;19.80;99.90;;;;;;5091856;28;20213;-51
2022/06/17 00:22:53;;;;;;;5.73;5.33;;;19.80;99.90;;;;;;5088946;28;20207;-51
2022/06/17 00:25:28;;;;;;;6.67;6.17;;;19.70;99.90;;;;;;5091736;28;20257;-51
2022/06/17 00:27:57;;;;;;;6.20;5.83;;;19.70;99.90;;;;;;5096864;28;20580;-51
2022/06/17 00:30:26;;;;;;;6.00;5.60;;;19.60;99.90;;;;;;5094884;28;20289;-52
2022/06/17 00:32:54;;;;;;;6.13;5.77;;;19.60;99.90;;;;;;5090598;28;20200;-52
2022/06/17 00:35:21;;;;;;;6.80;6.27;;;19.60;99.90;;;;;;5090860;28;20219;-51
2022/06/17 00:37:48;;;;;;;6.60;6.10;;;19.60;99.90;;;;;;5082484;28;20203;-52
2022/06/17 00:40:19;;;;;;;6.27;5.90;;;19.60;99.90;;;;;;5090349;28;20217;-52
2022/06/17 00:42:47;;;;;;;7.07;6.53;;;19.70;99.90;;;;;;5077627;28;20274;-52
2022/06/17 00:45:28;;;;;;;6.33;5.73;;;19.80;99.90;;;;;;5086157;28;20196;-52
2022/06/17 00:48:02;;;;;;;6.90;6.40;;;19.80;99.90;;;;;;5092725;28;20282;-51
2022/06/17 00:50:36;;;;;;;6.87;6.47;;;19.90;99.90;;;;;;5097193;28;20265;-52
2022/06/17 00:53:17;;;;;;;6.87;6.17;;;20.00;99.90;;;;;;5094539;28;20204;-52
2022/06/17 00:55:47;;;;;;;6.80;6.33;;;19.90;99.90;;;;;;5083377;22;20317;-48
2022/06/17 00:58:18;;;;;;;7.93;6.40;;;19.90;99.90;;;;;;5047316;28;20207;-48
2022/06/17 01:00:48;;;;;;;5.97;5.67;;;19.90;99.90;;;;;;5050807;28;20298;-47
2022/06/17 01:03:21;;;;;;;7.20;6.50;;;19.90;99.90;;;;;;5053372;28;20201;-47
2022/06/17 01:05:51;;;;;;;6.93;6.43;;;19.90;99.90;;;;;;5053320;28;20222;-47
2022/06/17 01:11:11;;;;;;;6.10;5.70;;;19.90;99.90;;;;;;5048986;28;20762;-47
2022/06/17 01:13:38;;;;;;;6.13;5.67;;;19.80;99.90;;;;;;5049262;28;20602;-47
2022/06/17 01:16:07;;;;;;;6.90;5.60;;;19.80;99.90;;;;;;5046706;28;20274;-47
2022/06/17 01:18:39;;;;;;;6.17;5.77;;;19.80;99.90;;;;;;5053201;28;20606;-47
2022/06/17 01:21:15;;;;;;;6.63;6.07;;;19.70;99.90;;;;;;5052834;28;20226;-47
2022/06/17 01:23:44;;;;;;;6.17;5.60;;;19.80;99.90;;;;;;5052499;28;20217;-47
2022/06/17 01:26:11;;;;;;;7.77;7.27;;;19.90;99.90;;;;;;5052051;28;20209;-47
2022/06/17 01:28:38;;;;;;;6.00;5.70;;;19.90;99.90;;;;;;5050852;28;20567;-48
2022/06/17 01:31:08;;;;;;;7.00;5.67;;;19.90;99.90;;;;;;5050112;28;20244;-48
2022/06/17 01:33:37;;;;;;;6.70;6.30;;;20.00;99.90;;;;;;5048052;28;20275;-48
2022/06/17 01:36:09;;;;;;;6.03;5.67;;;19.90;99.90;;;;;;5049308;28;20226;-48
2022/06/17 01:38:38;;;;;;;6.23;5.70;;;20.00;99.90;;;;;;5041777;28;20233;-47
2022/06/17 01:41:07;;;;;;;6.50;5.40;;;20.00;99.90;;;;;;5051141;28;20279;-47
2022/06/17 01:43:40;;;;;;;6.33;5.83;;;20.00;99.90;;;;;;5051698;28;20210;-48
2022/06/17 01:46:11;;;;;;;6.37;5.97;;;20.00;99.90;;;;;;5050798;28;20222;-47
2022/06/17 01:48:42;;;;;;;6.03;5.63;;;20.00;99.90;;;;;;5051773;28;20556;-47
2022/06/17 01:51:11;;;;;;;7.33;6.73;;;20.00;99.90;;;;;;5053784;28;20190;-47
2022/06/17 01:53:42;;;;;;;7.20;6.60;;;20.10;99.90;;;;;;5051292;28;20197;-48
2022/06/17 01:56:15;;;;;;;6.83;6.30;;;20.10;99.90;;;;;;5045296;28;20221;-47
2022/06/17 01:58:46;;;;;;;7.50;6.90;;;20.10;99.90;;;;;;5049992;28;20267;-47
2022/06/17 02:01:15;;;;;;;7.47;6.77;;;19.90;99.90;;;;;;5051424;28;20635;-47
2022/06/17 02:03:47;;;;;;;7.40;6.80;;;19.80;99.90;;;;;;5051910;28;20194;-47
2022/06/17 02:06:22;;;;;;;7.50;7.00;;;19.80;99.90;;;;;;5045802;28;20251;-47
2022/06/17 02:08:51;;;;;;;8.37;7.87;;;19.80;99.90;;;;;;5052379;28;20613;-47
2022/06/17 02:11:20;;;;;;;8.47;8.00;;;19.70;99.90;;;;;;5052017;28;20567;-47
2022/06/17 02:13:48;;;;;;;8.23;7.63;;;19.60;99.90;;;;;;5048741;28;20209;-47
2022/06/17 02:16:15;;;;;;;8.93;8.37;;;19.60;99.90;;;;;;5052619;28;20252;-47
2022/06/17 02:18:44;;;;;;;8.80;8.33;;;19.50;99.90;;;;;;5051176;28;20694;-47
2022/06/17 02:21:17;;;;;;;7.75;7.28;;;19.30;99.90;;;;;;5045607;28;20503;-47
2022/06/17 02:23:45;;;;;;;8.40;7.80;;;19.20;99.90;;;;;;5049882;28;20231;-47
2022/06/17 02:26:14;;;;;;;8.60;8.00;;;19.20;99.90;;;;;;5052359;28;20672;-47
2022/06/17 02:28:43;;;;;;;7.43;6.93;;;19.10;99.90;;;;;;5052276;28;20198;-47
2022/06/17 02:31:10;;;;;;;7.07;6.67;;;19.00;99.90;;;;;;5046147;28;20198;-47
2022/06/17 02:33:39;;;;;;;6.17;5.97;;;18.90;99.90;;;;;;5050517;28;20202;-47
2022/06/17 02:36:13;;;;;;;8.53;8.00;;;18.80;99.90;;;;;;5050697;28;20268;-47
2022/06/17 02:38:40;;;;;;;8.07;7.33;;;18.80;99.90;;;;;;5047321;28;20198;-47
2022/06/17 02:41:19;;;;;;;7.47;7.07;;;18.70;99.90;;;;;;5045822;28;20785;-47
2022/06/17 02:43:52;;;;;;;7.47;7.03;;;18.60;99.90;;;;;;5048528;28;20770;-47
2022/06/17 02:46:26;;;;;;;7.13;6.73;;;18.50;99.90;;;;;;5047769;28;20206;-46
2022/06/17 02:48:56;;;;;;;6.97;6.57;;;18.40;99.90;;;;;;5052826;28;20259;-46
2022/06/17 02:51:26;;;;;;;8.30;7.70;;;18.30;99.90;;;;;;5042063;28;20198;-47
2022/06/17 02:53:53;;;;;;;8.30;7.67;;;18.20;99.90;;;;;;5051884;28;20201;-46
2022/06/17 02:56:24;;;;;;;7.37;6.87;;;18.20;99.90;;;;;;5049972;28;20202;-47
2022/06/17 02:59:03;;;;;;;7.33;6.87;;;18.10;99.90;;;;;;5051948;28;20193;-46
2022/06/17 03:01:33;;;;;;;7.57;7.00;;;18.00;99.90;;;;;;5051914;28;20248;-47
2022/06/17 03:04:00;;;;;;;7.67;7.20;;;18.00;99.90;;;;;;5050793;28;20210;-47
2022/06/17 03:06:33;;;;;;;6.93;6.43;;;18.10;99.90;;;;;;5050527;28;20206;-47
2022/06/17 03:09:14;;;;;;;7.27;6.77;;;18.10;99.90;;;;;;5049832;28;20194;-46
2022/06/17 03:11:41;;;;;;;7.73;7.13;;;18.10;99.90;;;;;;5051145;28;20725;-47
2022/06/17 03:14:12;;;;;;;6.40;6.10;;;18.10;99.90;;;;;;5046860;28;20218;-47
2022/06/17 03:16:40;;;;;;;10.60;6.97;;;18.10;99.90;;;;;;5043355;28;20197;-47
2022/06/17 03:19:08;;;;;;;7.67;7.27;;;18.10;99.90;;;;;;5051442;28;20194;-47
2022/06/17 03:21:35;;;;;;;7.87;7.20;;;18.10;99.90;;;;;;5048472;28;20287;-47
2022/06/17 03:24:11;;;;;;;6.70;6.30;;;18.10;99.90;;;;;;5047233;28;20332;-47
2022/06/17 03:26:43;;;;;;;7.13;6.63;;;18.00;99.90;;;;;;5039460;28;20202;-47
2022/06/17 03:29:14;;;;;;;7.77;7.20;;;18.00;99.90;;;;;;5044233;28;20305;-47
2022/06/17 03:31:47;;;;;;;7.00;6.60;;;18.10;99.90;;;;;;5049186;28;20198;-47
2022/06/17 03:34:19;;;;;;;6.23;5.93;;;18.00;99.90;;;;;;5047787;28;20241;-47
2022/06/17 03:36:52;;;;;;;6.73;6.33;;;18.00;99.90;;;;;;5047954;28;20201;-47
2022/06/17 03:39:24;;;;;;;8.50;7.90;;;18.00;99.90;;;;;;5046931;28;20248;-47
2022/06/17 03:41:55;;;;;;;7.57;7.13;;;18.00;99.90;;;;;;5048965;28;20209;-47
2022/06/17 03:44:29;;;;;;;6.93;6.57;;;18.00;99.90;;;;;;5043891;28;20222;-47
2022/06/17 03:47:02;;;;;;;6.90;6.60;;;18.00;99.90;;;;;;5050099;28;20667;-47
2022/06/17 03:49:37;;;;;;;7.33;6.83;;;18.00;99.90;;;;;;5052053;28;20216;-47
2022/06/17 03:52:11;;;;;;;7.33;6.93;;;18.10;99.90;;;;;;5051789;28;20194;-47
2022/06/17 03:54:38;;;;;;;7.30;6.80;;;18.10;99.90;;;;;;5051734;28;20299;-47
2022/06/17 03:57:09;;;;;;;7.90;7.40;;;18.20;99.90;;;;;;5049730;28;20626;-47
2022/06/17 03:59:41;;;;;;;8.13;7.40;;;18.20;99.90;;;;;;5048560;28;20663;-47
2022/06/17 04:02:12;;;;;;;8.50;7.87;;;18.30;99.90;;;;;;5050482;28;20745;-46
2022/06/17 04:04:42;;;;;;;8.70;8.20;;;18.30;99.90;;;;;;5050085;28;20226;-47
2022/06/17 04:07:11;;;;;;;10.63;9.73;;;18.40;99.90;;;;;;5049222;28;20248;-47
2022/06/17 04:09:41;;;;;;;8.83;8.33;;;18.40;99.90;;;;;;5048923;28;20311;-46
2022/06/17 04:12:20;;;;;;;9.33;8.63;;;18.50;99.90;;;;;;5050341;28;20244;-47
2022/06/17 04:14:55;;;;;;;8.40;7.73;;;18.50;99.90;;;;;;5048871;28;20249;-46
2022/06/17 04:17:29;;;;;;;8.17;7.70;;;18.60;99.90;;;;;;5048362;28;20256;-47
2022/06/17 04:20:16;;;;;;;8.50;7.90;;;18.70;99.90;;;;;;5047967;28;20570;-46
2022/06/17 04:22:46;;;;;;;8.47;7.83;;;18.80;99.90;;;;;;5049131;28;20267;-47
2022/06/17 04:25:19;;;;;;;9.73;7.77;;;18.90;99.90;;;;;;5045479;28;20646;-47
2022/06/17 04:27:58;;;;;;;8.20;7.73;;;19.00;99.90;;;;;;5046437;28;20193;-47
2022/06/17 04:30:30;;;;;;;8.43;7.87;;;19.00;99.90;;;;;;5046120;28;20201;-46
2022/06/17 04:33:01;;;;;;;8.63;8.07;;;19.20;99.90;;;;;;5046928;28;20205;-46
2022/06/17 04:35:29;;;;;;;7.40;6.90;;;19.30;99.90;;;;;;5050413;28;20225;-47
2022/06/17 04:37:56;;;;;;;7.93;7.43;;;19.40;99.90;;;;;;5049566;28;20256;-47
2022/06/17 04:40:30;;;;;;;10.77;9.97;;;19.50;99.90;;;;;;5050764;28;20597;-47
2022/06/17 04:42:59;;;;;;;10.87;10.00;;;19.60;99.90;;;;;;5049959;28;20217;-46
2022/06/17 04:45:29;;;;;;;12.43;11.40;;;19.80;99.90;;;;;;5050817;28;20710;-47
2022/06/17 04:47:58;;;;;;;10.97;10.27;;;20.00;99.90;;;;;;5046184;28;20206;-46
2022/06/17 04:50:30;;;;;;;10.67;9.90;;;20.10;99.90;;;;;;5049397;28;21019;-46
2022/06/17 04:52:57;;;;;;;11.17;10.17;;;20.10;99.90;;;;;;5050479;28;20201;-47
2022/06/17 04:55:28;;;;;;;10.07;9.37;;;20.20;99.90;;;;;;5050527;28;20276;-47
2022/06/17 04:57:56;;;;;;;10.37;9.70;;;20.30;99.90;;;;;;5049874;28;20757;-47
2022/06/17 05:00:27;;;;;;;9.47;8.50;;;20.40;99.90;;;;;;5050582;28;20282;-47
2022/06/17 05:02:55;;;;;;;9.27;8.53;;;20.40;99.90;;;;;;5050564;28;20209;-46
2022/06/17 05:05:30;;;;;;;9.60;8.80;;;20.60;99.90;;;;;;5049541;28;20222;-47
2022/06/17 05:07:58;;;;;;;9.20;8.37;;;20.80;99.90;;;;;;5049725;28;20198;-47
2022/06/17 05:10:29;;;;;;;7.23;6.63;;;21.00;99.90;;;;;;5050442;28;20202;-47
2022/06/17 05:13:06;;;;;;;7.53;7.03;;;21.60;99.90;;;;;;5050172;28;20198;-47
2022/06/17 05:15:35;;;;;;;7.83;7.27;;;22.00;99.90;;;;;;5050406;28;20217;-47
2022/06/17 05:18:04;;;;;;;11.00;8.37;;;22.30;99.90;;;;;;5048940;28;20251;-47
2022/06/17 05:20:31;;;;;;;8.83;8.03;;;22.70;99.90;;;;;;5050556;28;20190;-47
2022/06/17 05:23:03;;;;;;;7.73;7.33;;;23.00;99.90;;;;;;5047688;28;20265;-47
2022/06/17 05:25:33;;;;;;;6.53;6.23;;;23.50;99.90;;;;;;5048574;28;20260;-47
2022/06/17 05:28:00;;;;;;;8.50;7.77;;;24.30;99.90;;;;;;5051820;28;20240;-47
2022/06/17 05:30:31;;;;;;;9.27;8.67;;;24.90;99.90;;;;;;5053694;28;20210;-48
2022/06/17 05:32:57;;;;;;;7.10;6.70;;;25.40;99.90;;;;;;5050384;28;20197;-47
2022/06/17 05:35:26;;;;;;;8.17;7.67;;;26.00;99.90;;;;;;5050155;28;20217;-47
2022/06/17 05:37:54;;;;;;;8.13;7.33;;;26.20;99.90;;;;;;5051869;28;20292;-46
2022/06/17 05:40:21;;;;;;;7.90;7.30;;;26.40;99.90;;;;;;5050017;28;20743;-47
2022/06/17 05:42:49;;;;;;;7.07;6.57;;;26.60;99.90;;;;;;5050043;28;20218;-48
2022/06/17 05:45:20;;;;;;;8.55;7.95;;;27.00;99.90;;;;;;5050790;28;20896;-47
2022/06/17 05:47:47;;;;;;;7.45;7.03;;;27.50;99.90;;;;;;5052375;28;20671;-48
2022/06/17 05:50:19;;;;;;;7.82;7.32;;;27.70;99.90;;;;;;5050030;28;20248;-48
2022/06/17 05:52:57;;;;;;;9.02;7.78;;;28.20;99.90;;;;;;5048248;28;20614;-48
2022/06/17 05:55:26;;;;;;;8.10;7.68;;;28.70;99.90;;;;;;5052591;28;20361;-48
2022/06/17 05:57:53;;;;;;;7.28;6.78;;;29.10;99.90;;;;;;5050358;28;20264;-48
2022/06/17 06:00:21;;;;;;;8.18;7.40;;;29.40;99.90;;;;;;5051342;28;20198;-48
2022/06/17 06:02:48;;;;;;;7.05;6.57;;;29.50;99.90;;;;;;5051907;28;20221;-50
2022/06/17 06:05:20;;;;;;;6.65;6.18;;;30.00;99.90;;;;;;5049646;28;20229;-50
2022/06/17 06:07:47;;;;;;;7.43;6.90;;;30.20;99.90;;;;;;5048556;28;20615;-50
2022/06/17 06:10:17;;;;;;;6.70;6.28;;;30.30;99.90;;;;;;5048195;28;20737;-50
2022/06/17 06:13:01;;;;;;;5.97;5.50;;;30.50;99.90;;;;;;5051409;28;20667;-50
2022/06/17 06:15:33;;;;;;;5.97;5.68;;;30.80;99.90;;;;;;5050358;28;20214;-50
2022/06/17 06:18:00;;;;;;;5.75;4.05;;;30.70;99.90;;;;;;5047084;28;20229;-50
2022/06/17 06:20:27;;;;;;;4.53;4.32;;;30.40;99.90;;;;;;5052688;28;20285;-50
2022/06/17 06:22:54;;;;;;;4.28;3.90;;;30.60;99.90;;;;;;5052740;28;20571;-50
2022/06/17 06:25:23;;;;;;;4.43;4.05;;;31.10;99.90;;;;;;5051416;28;20225;-50
2022/06/17 06:27:51;;;;;;;8.38;5.65;;;31.50;99.90;;;;;;5051195;28;20198;-50
2022/06/17 06:30:22;;;;;;;4.68;4.43;;;30.50;99.90;;;;;;5052108;28;20671;-50
2022/06/17 06:32:51;;;;;;;4.20;3.97;;;30.30;99.90;;;;;;5049583;28;20243;-50
2022/06/17 06:35:19;;;;;;;4.43;4.13;;;30.50;99.90;;;;;;5042758;28;20317;-50
2022/06/17 06:37:46;;;;;;;5.00;4.47;;;30.60;99.90;;;;;;5048860;28;20617;-50
2022/06/17 06:40:14;;;;;;;4.15;3.95;;;30.10;99.90;;;;;;5050913;28;20250;-50
2022/06/17 06:42:43;;;;;;;5.00;4.55;;;30.10;99.90;;;;;;5051716;28;20264;-50
2022/06/17 06:45:17;;;;;;;5.03;4.82;;;31.00;99.90;;;;;;5043657;28;20218;-50
2022/06/17 06:47:45;;;;;;;7.78;7.22;;;31.20;99.90;;;;;;5051081;28;20289;-50
2022/06/17 06:50:15;;;;;;;5.93;5.32;;;31.50;99.90;;;;;;5051717;28;20703;-50
2022/06/17 06:52:42;;;;;;;4.78;4.57;;;30.60;99.90;;;;;;5043404;28;20198;-50
2022/06/17 06:55:10;;;;;;;5.15;4.90;;;31.30;99.90;;;;;;5074981;22;20225;-51
2022/06/17 06:57:46;;;;;;;4.22;4.03;;;31.30;99.90;;;;;;5065578;28;20639;-52
2022/06/17 07:00:16;;;;;;;5.15;4.40;;;30.90;99.90;;;;;;5062338;28;20197;-52
2022/06/17 07:02:43;;;;;;;5.10;4.80;;;31.20;99.90;;;;;;5068051;28;20300;-53
2022/06/17 07:05:10;;;;;;;4.97;4.78;;;31.30;99.90;;;;;;5070106;28;20220;-52
2022/06/17 07:07:38;;;;;;;5.40;5.00;;;31.90;99.60;;;;;;5069063;28;20251;-52
2022/06/17 07:10:06;;;;;;;5.40;4.93;;;32.20;99.10;;;;;;5071891;28;20201;-52
2022/06/17 07:12:33;;;;;;;5.40;5.10;;;32.40;98.40;;;;;;5068092;28;20197;-52
2022/06/17 07:15:01;;;;;;;5.82;5.53;;;32.30;97.60;;;;;;5060919;28;20711;-51
2022/06/17 07:17:28;;;;;;;4.80;4.38;;;32.50;97.30;;;;;;5070062;28;20239;-52
2022/06/17 07:19:55;;;;;;;5.45;5.15;;;32.80;98.20;;;;;;5065913;28;20254;-51
2022/06/17 07:22:22;;;;;;;5.30;5.10;;;32.80;97.30;;;;;;5066558;28;20193;-52
2022/06/17 07:24:50;;;;;;;5.57;5.07;;;33.10;95.90;;;;;;5066790;28;20216;-51
2022/06/17 07:27:18;;;;;;;4.95;4.75;;;33.00;95.90;;;;;;5070332;28;20288;-51
2022/06/17 07:29:45;;;;;;;5.20;5.07;;;33.10;95.60;;;;;;5070628;28;20197;-52
2022/06/17 07:32:14;;;;;;;4.85;4.43;;;33.00;95.40;;;;;;5062343;28;20634;-51
2022/06/17 07:34:41;;;;;;;4.15;4.05;;;32.60;96.90;;;;;;5066478;28;20217;-52
2022/06/17 07:39:55;;;;;;;5.10;4.78;;;32.70;94.90;;;;;;5051258;28;20970;-51
2022/06/17 07:42:23;;;;;;;5.45;5.15;;;32.60;96.70;;;;;;5065236;28;20201;-52
2022/06/17 07:44:51;;;;;;;4.47;4.15;;;32.90;95.10;;;;;;5069454;28;20259;-52
2022/06/17 07:47:22;;;;;;;7.10;5.28;;;33.00;97.40;;;;;;5070286;28;20293;-52
2022/06/17 07:49:49;;;;;;;4.30;4.15;;;33.10;94.30;;;;;;5066113;28;20663;-53
2022/06/17 07:52:16;;;;;;;4.85;4.57;;;32.70;94.50;;;;;;5067921;28;20243;-52
2022/06/17 07:54:43;;;;;;;3.90;3.80;;;33.30;93.70;;;;;;5066209;28;20327;-53
2022/06/17 07:57:13;;;;;;;4.70;4.53;;;33.30;94.50;;;;;;5067361;28;20225;-52
2022/06/17 07:59:40;;;;;;;5.07;4.40;;;32.20;95.40;;;;;;5070373;28;20760;-52
2022/06/17 08:02:07;;;;;;;3.60;3.40;;;32.20;96.10;;;;;;5064340;28;20267;-52
2022/06/17 08:04:38;;;;;;;4.03;3.53;;;31.90;93.00;;;;;;5063938;28;20599;-53
2022/06/17 08:07:05;;;;;;;3.88;3.58;;;31.90;93.20;;;;;;5063950;28;20201;-53
2022/06/17 08:09:33;;;;;;;3.60;3.40;;;32.40;90.00;;;;;;5064180;28;20455;-52
2022/06/17 08:12:18;;;;;;;4.05;3.70;;;31.70;91.10;;;;;;5068990;28;20489;-52
2022/06/17 08:14:46;;;;;;;4.40;4.10;;;32.40;91.50;;;;;;5066303;28;20213;-52
2022/06/17 08:17:15;;;;;;;3.47;3.28;;;32.00;90.40;;;;;;5065284;28;20209;-52
2022/06/17 08:19:44;;;;;;;3.25;3.00;;;32.40;90.70;;;;;;5070400;28;20247;-53
2022/06/17 08:22:11;;;;;;;3.38;3.28;;;32.70;91.30;;;;;;5070201;28;20203;-53
2022/06/17 08:24:38;;;;;;;3.70;3.50;;;32.40;90.40;;;;;;5070529;28;20274;-53
2022/06/17 08:27:06;;;;;;;4.00;3.72;;;32.80;90.40;;;;;;5065199;28;20266;-53
2022/06/17 08:29:34;;;;;;;3.08;2.97;;;32.20;87.80;;;;;;5070184;28;20255;-53
2022/06/17 08:34:44;;;;;;;3.92;3.63;;;32.10;87.00;;;;;;5068920;28;20221;-53
2022/06/17 08:37:12;;;;;;;4.18;3.60;;;31.90;86.00;;;;;;5066222;28;20752;-53
2022/06/17 08:39:39;;;;;;;3.03;2.85;;;32.50;86.00;;;;;;5070025;28;20254;-53
2022/06/17 08:42:15;;;;;;;3.45;3.35;;;32.20;87.90;;;;;;5066282;28;20229;-53
2022/06/17 08:44:52;;;;;;;3.40;3.10;;;32.70;85.20;;;;;;5069863;28;20220;-52
2022/06/17 08:47:33;;;;;;;3.67;3.47;;;32.30;87.20;;;;;;5068414;28;20197;-53
2022/06/17 08:50:42;;;;;;;3.83;3.50;;;32.80;87.60;;;;;;5070988;28;20588;-53
2022/06/17 08:53:30;;;;;;;3.95;3.75;;;33.30;88.30;;;;;;5070527;28;20233;-52
2022/06/17 08:56:02;;;;;;;4.32;4.15;;;33.70;82.80;;;;;;5069853;28;20714;-55
2022/06/17 08:58:38;;;;;;;3.58;3.35;;;33.50;81.70;;;;;;5067741;28;20197;-52
2022/06/17 09:01:15;;;;;;;4.30;3.92;;;33.70;83.60;;;;;;5070828;28;20220;-52
2022/06/17 09:04:00;;;;;;;5.13;3.47;;;33.50;81.60;;;;;;5073909;28;20224;-52
2022/06/17 09:06:44;;;;;;;2.80;2.65;;;33.20;87.50;;;;;;5074740;28;20278;-54
2022/06/17 09:09:25;;;;;;;4.20;3.67;;;33.60;83.00;;;;;;5066538;28;20605;-52
2022/06/17 09:12:00;;;;;;;3.40;3.30;;;33.40;83.30;;;;;;5074320;28;20247;-52
2022/06/17 09:14:39;;;;;;;3.20;3.00;;;32.80;85.90;;;;;;5074792;28;20262;-53
2022/06/17 09:17:16;;;;;;;4.53;4.32;;;33.30;88.70;;;;;;5073381;28;20638;-52
2022/06/17 09:19:49;;;;;;;4.40;4.10;;;32.80;85.40;;;;;;5074342;28;20254;-52
2022/06/17 09:22:21;;;;;;;3.97;3.55;;;32.20;90.50;;;;;;5074100;28;20250;-53
2022/06/17 09:24:48;;;;;;;3.55;3.28;;;32.50;86.50;;;;;;5073086;28;20232;-52
2022/06/17 09:27:24;;;;;;;3.78;3.58;;;32.60;86.80;;;;;;5073674;28;20194;-52
2022/06/17 09:29:57;;;;;;;4.70;4.32;;;33.30;86.60;;;;;;5074152;28;20250;-52
2022/06/17 09:32:28;;;;;;;3.85;3.55;;;33.10;85.20;;;;;;5074010;28;20269;-54
2022/06/17 09:35:04;;;;;;;4.25;3.88;;;32.80;90.30;;;;;;5074022;28;20304;-52
2022/06/17 09:37:39;;;;;;;4.47;3.88;;;32.90;83.80;;;;;;5073210;28;20205;-53
2022/06/17 09:40:13;;;;;;;3.40;3.20;;;33.20;84.50;;;;;;5074214;28;20273;-53
2022/06/17 09:42:45;;;;;;;3.20;3.10;;;33.00;86.20;;;;;;5074075;28;20274;-52
2022/06/17 09:45:18;;;;;;;3.63;3.40;;;33.40;82.20;;;;;;5073956;28;20212;-53
2022/06/17 09:47:52;;;;;;;3.35;2.88;;;33.80;80.50;;;;;;5073115;28;20201;-53
2022/06/17 09:50:24;;;;;;;3.72;3.53;;;34.20;83.50;;;;;;5074195;28;20197;-53
2022/06/17 09:52:57;;;;;;;3.42;3.25;;;33.70;79.80;;;;;;5072911;28;20251;-52
2022/06/17 09:55:35;;;;;;;3.05;2.95;;;33.50;86.30;;;;;;5073793;28;20225;-52
2022/06/17 09:58:07;;;;;;;3.65;3.33;;;33.50;80.10;;;;;;5073786;28;20284;-54
2022/06/17 10:00:43;;;;;;;3.00;2.90;;;33.40;77.70;;;;;;5073965;28;20208;-53
2022/06/17 10:03:21;;;;;;;3.00;2.90;;;33.60;79.60;;;;;;5064598;28;20608;-52
2022/06/17 10:05:59;;;;;;;2.80;2.65;;;33.50;79.60;;;;;;5073530;28;20844;-54
2022/06/17 10:08:33;;;;;;;3.72;3.25;;;33.10;83.60;;;;;;5073583;28;20209;-55
2022/06/17 10:11:07;;;;;;;2.97;2.78;;;33.40;81.40;;;;;;5073361;28;20208;-54
2022/06/17 10:13:42;;;;;;;3.08;2.75;;;33.70;78.70;;;;;;5068454;28;20219;-55
2022/06/17 10:19:19;;;;;;;5.28;3.40;;;33.30;76.00;;;;;;5073364;28;20314;-54
2022/06/17 10:22:01;;;;;;;4.35;3.85;;;33.20;80.50;;;;;;5073396;28;20231;-54
2022/06/17 10:24:41;;;;;;;2.90;2.70;;;32.40;77.40;;;;;;5072023;28;20221;-54
2022/06/17 10:27:31;;;;;;;3.42;3.22;;;32.60;76.80;;;;;;5063965;28;20205;-54
2022/06/17 10:30:06;;;;;;;3.10;2.65;;;33.30;79.20;;;;;;5073084;28;20213;-55
2022/06/17 10:32:35;;;;;;;3.30;3.10;;;32.80;74.90;;;;;;5072517;28;20205;-54
2022/06/17 10:35:05;;;;;;;2.53;2.53;;;33.00;77.20;;;;;;5071956;28;20300;-54
2022/06/17 10:37:36;;;;;;;3.17;2.85;;;33.40;79.60;;;;;;5070969;28;20339;-55
2022/06/17 10:40:08;;;;;;;3.28;3.17;;;33.70;74.40;;;;;;5072726;28;20869;-54
2022/06/17 10:42:35;;;;;;;3.15;3.05;;;34.10;74.70;;;;;;5051625;28;20598;-55
2022/06/17 10:45:04;;;;;;;2.80;2.70;;;34.10;81.00;;;;;;5052412;28;20279;-55
2022/06/17 10:47:38;;;;;;;3.33;3.20;;;33.90;76.80;;;;;;5068829;28;20804;-54
2022/06/17 10:50:13;;;;;;;2.53;2.42;;;33.40;80.40;;;;;;5072245;28;20258;-54
2022/06/17 10:52:44;;;;;;;4.00;2.67;;;33.30;73.40;;;;;;5072319;28;20216;-54
2022/06/17 10:55:19;;;;;;;4.18;2.42;;;32.70;77.50;;;;;;5072244;28;20260;-53
2022/06/17 10:58:09;;;;;;;2.88;2.72;;;32.30;78.70;;;;;;5062599;28;20340;-53
2022/06/17 11:00:43;;;;;;;3.00;2.80;;;32.10;79.30;;;;;;5067253;28;20683;-53
2022/06/17 11:03:21;;;;;;;3.42;2.28;;;31.30;78.20;;;;;;5072026;28;20200;-52
2022/06/17 11:05:56;;;;;;;2.15;2.05;;;30.80;80.00;;;;;;5071191;28;20286;-53
2022/06/17 11:08:26;;;;;;;2.22;2.22;;;30.00;75.90;;;;;;5071870;28;20674;-53
2022/06/17 11:10:58;;;;;;;3.80;2.50;;;29.70;82.90;;;;;;5068978;28;20492;-53
2022/06/17 11:13:28;;;;;;;3.95;3.47;;;29.80;81.70;;;;;;5065508;28;20280;-53
2022/06/17 11:15:58;;;;;;;2.85;2.75;;;29.90;79.10;;;;;;5069713;28;20217;-53
2022/06/17 11:18:33;;;;;;;2.33;2.33;;;29.60;78.90;;;;;;5069775;28;20729;-52
2022/06/17 11:21:03;;;;;;;2.80;2.60;;;29.50;80.90;;;;;;5071722;28;20247;-52
2022/06/17 11:23:32;;;;;;;3.03;2.83;;;29.50;81.00;;;;;;5064421;28;20244;-52
2022/06/17 11:26:13;;;;;;;2.58;2.42;;;29.50;82.60;;;;;;5066979;28;20217;-53
2022/06/17 11:28:44;;;;;;;4.85;3.00;;;29.60;84.40;;;;;;5067667;28;20201;-52
2022/06/17 11:31:14;;;;;;;2.25;2.13;;;29.30;84.10;;;;;;5071311;28;20242;-52
2022/06/17 11:33:58;;;;;;;5.32;2.78;;;29.10;80.80;;;;;;5071666;28;20205;-52
2022/06/17 11:36:28;;;;;;;4.25;2.50;;;29.10;85.10;;;;;;5069706;28;20755;-52
2022/06/17 11:38:57;;;;;;;2.38;2.17;;;28.80;82.30;;;;;;5071507;28;20200;-52
2022/06/17 11:41:28;;;;;;;2.67;2.58;;;29.00;80.40;;;;;;5071263;28;20232;-52
2022/06/17 11:43:58;;;;;;;2.90;2.70;;;29.40;77.10;;;;;;5071463;28;20225;-53
2022/06/17 11:46:28;;;;;;;2.88;2.20;;;29.30;80.20;;;;;;5065084;28;20217;-52
2022/06/17 11:48:58;;;;;;;3.05;2.10;;;29.60;81.80;;;;;;5068176;28;20331;-55
2022/06/17 11:51:32;;;;;;;3.33;3.03;;;29.50;81.90;;;;;;5071173;28;20614;-55
2022/06/17 11:54:03;;;;;;;3.20;2.90;;;29.10;80.50;;;;;;5065493;28;20223;-56
2022/06/17 11:56:34;;;;;;;2.03;1.92;;;28.80;83.10;;;;;;5068680;28;20229;-55
2022/06/17 11:59:09;;;;;;;2.53;2.33;;;28.60;82.70;;;;;;5066878;28;20270;-55
2022/06/17 12:01:36;;;;;;;2.63;2.53;;;28.70;86.20;;;;;;5069716;28;20346;-55
2022/06/17 12:04:04;;;;;;;3.35;2.80;;;28.80;85.10;;;;;;5069391;28;20274;-56
2022/06/17 12:06:44;;;;;;;4.55;2.20;;;28.90;84.40;;;;;;5068474;28;20271;-55
2022/06/17 12:09:17;;;;;;;3.58;2.83;;;28.80;84.70;;;;;;5066637;28;20270;-56
2022/06/17 12:11:51;;;;;;;2.63;2.50;;;29.10;81.30;;;;;;5050312;28;20194;-56
2022/06/17 12:14:26;;;;;;;2.40;2.30;;;29.10;79.70;;;;;;5050226;28;20193;-56
2022/06/17 12:16:53;;;;;;;2.97;2.88;;;28.90;79.90;;;;;;5060283;28;20621;-56
2022/06/17 12:19:22;;;;;;;2.70;2.50;;;28.80;77.20;;;;;;5070968;28;20193;-56
2022/06/17 12:21:58;;;;;;;2.65;2.42;;;28.90;80.20;;;;;;5070528;28;20197;-56
2022/06/17 12:24:34;;;;;;;2.53;2.40;;;28.80;78.90;;;;;;5069220;28;20224;-56
2022/06/17 12:27:11;;;;;;;2.22;2.13;;;28.80;77.60;;;;;;5068328;28;20205;-56
2022/06/17 12:29:46;;;;;;;2.13;2.13;;;28.80;79.10;;;;;;5070860;28;20619;-55
2022/06/17 12:32:20;;;;;;;2.95;2.85;;;28.80;79.10;;;;;;5070728;28;20715;-55
2022/06/17 12:34:55;;;;;;;2.35;2.25;;;28.80;81.30;;;;;;5070924;28;20221;-56
2022/06/17 12:37:36;;;;;;;3.22;3.03;;;28.80;82.80;;;;;;5072651;28;20200;-56
2022/06/17 12:40:07;;;;;;;3.53;2.53;;;28.80;85.70;;;;;;5074663;28;20229;-55
2022/06/17 12:42:41;;;;;;;4.00;2.05;;;28.80;82.10;;;;;;5074421;28;20279;-55
2022/06/17 12:45:19;;;;;;;5.22;2.80;;;28.70;83.80;;;;;;5074863;28;20228;-56
2022/06/17 12:47:59;;;;;;;3.40;3.20;;;28.40;78.00;;;;;;5072806;28;20270;-55
2022/06/17 12:53:33;;;;;;;5.63;3.42;;;28.60;84.30;;;;;;5074334;28;20201;-56
2022/06/17 12:56:10;;;;;;;2.22;2.22;;;28.60;83.30;;;;;;5093775;22;20236;-51
2022/06/17 12:58:58;;;;;;;4.05;3.30;;;28.50;81.30;;;;;;5047572;28;20198;-51
2022/06/17 13:01:30;;;;;;;3.88;3.55;;;28.40;83.70;;;;;;5048348;28;20684;-51
2022/06/17 13:04:21;;;;;;;3.50;2.60;;;28.20;80.80;;;;;;5054903;28;20205;-51
2022/06/17 13:07:06;;;;;;;4.45;3.50;;;28.30;82.90;;;;;;5054152;28;20217;-51
2022/06/17 13:09:45;;;;;;;3.42;2.55;;;28.40;84.50;;;;;;5046286;28;20189;-51
2022/06/17 13:12:21;;;;;;;2.80;2.70;;;28.30;85.30;;;;;;5044885;28;20232;-51
2022/06/17 13:14:58;;;;;;;3.10;3.00;;;27.90;81.20;;;;;;5046127;28;20190;-51
2022/06/17 13:17:30;;;;;;;3.10;2.97;;;28.00;85.60;;;;;;5053800;28;20255;-51
2022/06/17 13:20:04;;;;;;;2.85;2.63;;;28.10;86.10;;;;;;5046111;28;20256;-51
2022/06/17 13:22:36;;;;;;;4.65;2.95;;;28.20;85.20;;;;;;5054373;28;20550;-51